createdAt,value
2023-03-05T00:00:17.716Z,12.45
2023-03-05T00:03:20.749Z,17.25
2023-03-05T00:06:26.252Z,13.55
2023-03-05T00:09:30.614Z,13.45
2023-03-05T00:12:33.571Z,15.15
2023-03-05T00:15:42.279Z,15.10
2023-03-05T00:18:46.297Z,14.32
2023-03-05T00:21:49.233Z,14.77
2023-03-05T00:24:53.705Z,15.07
2023-03-05T00:27:56.578Z,13.07
2023-03-05T00:31:02.223Z,16.00
2023-03-05T00:34:08.249Z,14.15
2023-03-05T00:37:11.241Z,12.50
2023-03-05T00:40:15.884Z,14.95
2023-03-05T00:43:18.837Z,15.77
2023-03-05T00:46:22.026Z,13.38
2023-03-05T00:49:24.992Z,11.95
2023-03-05T00:52:28.208Z,13.02
2023-03-05T00:55:32.774Z,13.88
2023-03-05T00:58:35.723Z,14.88
2023-03-05T01:01:38.789Z,14.27
2023-03-05T01:04:43.566Z,13.70
2023-03-05T01:07:46.613Z,12.90
2023-03-05T01:10:50.945Z,14.02
2023-03-05T01:13:53.867Z,15.27
2023-03-05T01:16:56.841Z,17.98
2023-03-05T01:19:59.772Z,12.25
2023-03-05T01:23:02.941Z,14.07
2023-03-05T01:26:08.557Z,12.68
2023-03-05T01:29:11.542Z,13.68
2023-03-05T01:32:14.707Z,12.57
2023-03-05T01:35:20.914Z,11.98
2023-03-05T01:38:23.971Z,12.27
2023-03-05T01:41:28.440Z,12.82
2023-03-05T01:44:32.250Z,12.25
2023-03-05T01:47:35.208Z,12.90
2023-03-05T01:50:38.221Z,16.23
2023-03-05T01:53:41.392Z,13.52
2023-03-05T01:56:47.868Z,9.55
2023-03-05T01:59:55.742Z,12.07
2023-03-05T02:03:01.517Z,12.32
2023-03-05T02:06:05.562Z,11.63
2023-03-05T02:09:08.604Z,10.90
2023-03-05T02:12:15.134Z,10.88
2023-03-05T02:15:20.235Z,10.50
2023-03-05T02:18:24.444Z,11.13
2023-03-05T02:21:39.117Z,11.10
2023-03-05T02:24:42.006Z,10.48
2023-03-05T02:27:52.598Z,10.55
2023-03-05T02:30:55.809Z,9.68
2023-03-05T02:33:58.821Z,11.52
2023-03-05T02:37:04.712Z,10.65
2023-03-05T02:40:11.095Z,10.88
2023-03-05T02:43:14.080Z,9.50
2023-03-05T02:46:17.740Z,9.50
2023-03-05T02:49:20.885Z,9.70
2023-03-05T02:52:25.662Z,9.77
2023-03-05T02:55:28.871Z,11.43
2023-03-05T02:58:31.786Z,10.23
2023-03-05T03:01:34.729Z,10.48
2023-03-05T03:04:37.772Z,8.75
2023-03-05T03:07:42.183Z,8.52
2023-03-05T03:10:45.159Z,9.40
2023-03-05T03:13:48.183Z,9.10
2023-03-05T03:16:51.211Z,10.15
2023-03-05T03:19:54.143Z,9.52
2023-03-05T03:22:58.488Z,8.18
2023-03-05T03:26:01.479Z,9.80
2023-03-05T03:29:04.732Z,8.77
2023-03-05T03:32:08.652Z,7.32
2023-03-05T03:35:13.426Z,8.98
2023-03-05T03:38:17.768Z,7.75
2023-03-05T03:41:20.829Z,8.95
2023-03-05T03:44:24.496Z,8.35
2023-03-05T03:47:27.405Z,9.70
2023-03-05T03:50:30.300Z,8.38
2023-03-05T03:53:34.675Z,8.85
2023-03-05T03:56:37.734Z,8.30
2023-03-05T03:59:40.720Z,7.18
2023-03-05T04:02:43.715Z,9.07
2023-03-05T04:05:46.680Z,7.57
2023-03-05T04:08:51.036Z,9.10
2023-03-05T04:11:53.963Z,8.20
2023-03-05T04:14:56.909Z,7.22
2023-03-05T04:17:59.803Z,8.13
2023-03-05T04:21:02.713Z,6.97
2023-03-05T04:24:08.333Z,7.20
2023-03-05T04:27:11.971Z,7.88
2023-03-05T04:30:15.811Z,7.30
2023-03-05T04:33:18.785Z,8.02
2023-03-05T04:36:21.931Z,6.38
2023-03-05T04:39:26.249Z,8.10
2023-03-05T04:42:29.160Z,6.97
2023-03-05T04:45:32.645Z,7.05
2023-03-05T04:48:35.727Z,8.55
2023-03-05T04:51:38.631Z,7.53
2023-03-05T04:54:43.004Z,7.68
2023-03-05T04:57:46.060Z,7.35
2023-03-05T05:00:49.060Z,6.53
2023-03-05T05:03:51.926Z,8.63
2023-03-05T05:06:57.165Z,6.25
2023-03-05T05:10:01.429Z,6.28
2023-03-05T05:13:04.339Z,7.30
2023-03-05T05:16:08.727Z,7.47
2023-03-05T05:19:11.801Z,6.25
2023-03-05T05:22:14.753Z,6.65
2023-03-05T05:25:19.118Z,6.18
2023-03-05T05:28:22.057Z,6.25
2023-03-05T05:31:25.212Z,7.25
2023-03-05T05:34:28.304Z,5.78
2023-03-05T05:37:31.746Z,5.85
2023-03-05T05:40:36.040Z,6.63
2023-03-05T05:43:40.178Z,6.43
2023-03-05T05:46:43.142Z,6.95
2023-03-05T05:49:46.165Z,5.13
2023-03-05T05:52:49.161Z,5.25
2023-03-05T05:55:53.875Z,6.15
2023-03-05T05:58:56.878Z,5.80
2023-03-05T06:02:00.234Z,6.25
2023-03-05T06:05:03.319Z,5.40
2023-03-05T06:08:06.526Z,6.60
2023-03-05T06:11:11.285Z,5.30
2023-03-05T06:14:14.532Z,6.30
2023-03-05T06:17:28.625Z,5.55
2023-03-05T06:20:33.137Z,7.63
2023-03-05T06:23:36.196Z,6.25
2023-03-05T06:26:40.577Z,6.90
2023-03-05T06:29:43.580Z,7.32
2023-03-05T06:32:46.473Z,5.20
2023-03-05T06:35:49.445Z,5.47
2023-03-05T06:38:53.453Z,5.82
2023-03-05T06:41:58.050Z,5.10
2023-03-05T06:45:01.004Z,5.50
2023-03-05T06:48:03.877Z,6.05
2023-03-05T06:51:07.171Z,6.78
2023-03-05T06:54:12.302Z,6.22
2023-03-05T06:57:16.700Z,5.18
2023-03-05T07:00:20.298Z,5.40
2023-03-05T07:03:23.218Z,4.63
2023-03-05T07:06:27.452Z,5.85
2023-03-05T07:09:30.815Z,5.13
2023-03-05T07:12:35.356Z,6.70
2023-03-05T07:15:40.474Z,6.45
2023-03-05T07:18:43.709Z,4.18
2023-03-05T07:21:47.557Z,4.75
2023-03-05T07:24:51.088Z,4.88
2023-03-05T07:27:55.380Z,4.68
2023-03-05T07:30:59.715Z,6.13
2023-03-05T07:34:04.176Z,6.38
2023-03-05T07:37:07.117Z,4.53
2023-03-05T07:40:11.359Z,5.05
2023-03-05T07:43:15.683Z,5.30
2023-03-05T07:46:22.991Z,5.47
2023-03-05T07:49:25.959Z,4.95
2023-03-05T07:52:28.933Z,6.07
2023-03-05T07:55:32.266Z,6.28
2023-03-05T07:58:36.959Z,5.05
2023-03-05T08:01:40.624Z,5.40
2023-03-05T08:04:43.581Z,9.05
2023-03-05T08:07:46.552Z,5.45
2023-03-05T08:10:49.472Z,5.63
2023-03-05T08:13:53.775Z,6.10
2023-03-05T08:16:56.720Z,4.43
2023-03-05T08:20:00.327Z,5.63
2023-03-05T08:23:03.316Z,5.35
2023-03-05T08:26:13.268Z,5.05
2023-03-05T08:29:17.568Z,6.25
2023-03-05T08:32:20.724Z,6.45
2023-03-05T08:35:24.336Z,4.75
2023-03-05T08:38:27.341Z,5.70
2023-03-05T08:41:30.652Z,4.88
2023-03-05T08:44:34.903Z,5.30
2023-03-05T08:47:37.904Z,5.30
2023-03-05T08:50:40.821Z,5.40
2023-03-05T08:53:44.577Z,6.05
2023-03-05T08:56:47.503Z,5.35
2023-03-05T08:59:51.746Z,6.15
2023-03-05T09:02:54.657Z,5.18
2023-03-05T09:06:01.025Z,5.07
2023-03-05T09:09:03.924Z,4.50
2023-03-05T09:12:07.634Z,4.90
2023-03-05T09:15:12.908Z,5.65
2023-03-05T09:18:15.845Z,4.25
2023-03-05T09:21:19.328Z,4.57
2023-03-05T09:24:22.353Z,5.50
2023-03-05T09:27:25.639Z,5.70
2023-03-05T09:30:29.946Z,9.45
2023-03-05T09:33:33.669Z,7.82
2023-03-05T09:36:36.606Z,11.50
2023-03-05T09:39:39.564Z,5.47
2023-03-05T09:43:02.468Z,5.60
2023-03-05T09:46:19.766Z,6.78
2023-03-05T09:49:34.332Z,7.72
2023-03-05T09:52:42.651Z,5.82
2023-03-05T09:55:48.483Z,4.30
2023-03-05T09:58:56.151Z,5.80
2023-03-05T10:02:05.907Z,4.38
2023-03-05T10:05:16.856Z,4.05
2023-03-05T10:08:24.277Z,8.48
2023-03-05T10:11:37.014Z,10.85
2023-03-05T10:14:41.655Z,5.75
2023-03-05T10:18:13.541Z,11.15
2023-03-05T10:21:22.062Z,11.77
2023-03-05T10:24:37.946Z,9.60
2023-03-05T10:27:49.481Z,9.70
2023-03-05T10:31:04.372Z,7.35
2023-03-05T10:34:54.354Z,7.80
2023-03-05T10:38:17.116Z,8.82
2023-03-05T10:41:29.651Z,8.30
2023-03-05T10:44:38.877Z,12.38
2023-03-05T10:47:48.939Z,11.18
2023-03-05T10:51:00.527Z,11.00
2023-03-05T10:54:11.032Z,10.27
2023-03-05T10:57:25.315Z,13.80
2023-03-05T11:00:29.339Z,5.93
2023-03-05T11:03:48.874Z,6.30
2023-03-05T11:06:53.386Z,5.68
2023-03-05T11:10:05.644Z,7.95
2023-03-05T11:13:25.850Z,11.65
2023-03-05T11:16:30.804Z,10.95
2023-03-05T11:19:35.335Z,7.85
2023-03-05T11:22:39.894Z,8.50
2023-03-05T11:26:19.616Z,7.88
2023-03-05T11:29:25.404Z,11.68
2023-03-05T11:32:30.082Z,6.53
2023-03-05T11:35:35.561Z,7.30
2023-03-05T11:38:47.500Z,9.27
2023-03-05T11:41:52.717Z,8.15
2023-03-05T11:44:56.943Z,10.45
2023-03-05T11:48:07.303Z,18.92
2023-03-05T11:51:18.459Z,14.02
2023-03-05T11:54:31.619Z,13.68
2023-03-05T11:57:42.886Z,22.98
2023-03-05T12:00:47.523Z,32.70
2023-03-05T12:03:51.662Z,25.17
2023-03-05T12:06:59.424Z,21.40
2023-03-05T12:10:05.110Z,20.95
2023-03-05T12:13:16.279Z,21.98
2023-03-05T12:16:27.342Z,15.57
2023-03-05T12:19:50.560Z,14.07
2023-03-05T12:22:53.891Z,16.25
2023-03-05T12:26:01.358Z,18.27
2023-03-05T12:29:04.420Z,17.25
2023-03-05T12:33:03.413Z,18.30
2023-03-05T12:36:38.271Z,16.95
2023-03-05T12:39:52.666Z,18.02
2023-03-05T12:42:59.617Z,21.15
2023-03-05T12:46:25.792Z,16.80
2023-03-05T12:49:30.456Z,17.45
2023-03-05T12:52:35.135Z,14.05
2023-03-05T12:55:47.288Z,17.38
2023-03-05T12:58:54.763Z,12.68
2023-03-05T13:02:01.111Z,20.00
2023-03-05T13:05:08.612Z,13.63
2023-03-05T13:08:16.217Z,11.32
2023-03-05T13:11:22.558Z,11.07
2023-03-05T13:14:42.600Z,12.23
2023-03-05T13:17:54.193Z,11.57
2023-03-05T13:21:05.594Z,15.38
2023-03-05T13:24:17.497Z,16.77
2023-03-05T13:27:21.752Z,12.32
2023-03-05T13:30:28.782Z,13.30
2023-03-05T13:33:34.049Z,16.25
2023-03-05T13:36:38.875Z,16.17
2023-03-05T13:39:48.221Z,14.50
2023-03-05T13:42:53.238Z,13.38
2023-03-05T13:45:58.495Z,15.30
2023-03-05T13:49:20.338Z,20.25
2023-03-05T13:52:27.363Z,13.32
2023-03-05T13:55:30.488Z,12.25
2023-03-05T13:58:53.384Z,12.88
2023-03-05T14:01:58.575Z,12.68
2023-03-05T14:05:01.880Z,14.15
2023-03-05T14:08:05.455Z,12.70
2023-03-05T14:11:16.545Z,14.80
2023-03-05T14:14:21.068Z,12.13
2023-03-05T14:17:42.196Z,16.60
2023-03-05T14:21:04.018Z,11.68
2023-03-05T14:24:15.484Z,15.10
2023-03-05T14:27:22.500Z,13.93
2023-03-05T14:30:26.851Z,16.27
2023-03-05T14:33:33.624Z,12.90
2023-03-05T14:36:36.713Z,14.82
2023-03-05T14:39:50.501Z,19.45
2023-03-05T14:42:55.409Z,9.45
2023-03-05T14:45:58.341Z,12.60
2023-03-05T14:49:03.059Z,13.10
2023-03-05T14:52:06.649Z,12.52
2023-03-05T14:55:15.795Z,15.52
2023-03-05T14:58:21.780Z,11.13
2023-03-05T15:01:25.391Z,10.50
2023-03-05T15:04:29.741Z,15.25
2023-03-05T15:07:33.348Z,12.80
2023-03-05T15:10:36.289Z,11.48
2023-03-05T15:13:39.341Z,11.40
2023-03-05T15:16:44.622Z,11.98
2023-03-05T15:19:49.138Z,10.48
2023-03-05T15:22:52.172Z,12.80
2023-03-05T15:25:55.041Z,11.98
2023-03-05T15:32:06.376Z,10.63
2023-03-05T15:35:11.263Z,11.77
2023-03-05T15:38:15.311Z,9.98
2023-03-05T15:41:18.261Z,13.55
2023-03-05T15:44:21.819Z,12.68
2023-03-05T15:47:24.712Z,16.27
2023-03-05T15:50:29.347Z,15.73
2023-03-05T15:53:32.242Z,12.85
2023-03-05T15:56:35.238Z,13.77
2023-03-05T15:59:38.472Z,16.95
2023-03-05T16:02:41.381Z,15.93
2023-03-05T16:05:45.713Z,14.68
2023-03-05T16:08:49.496Z,18.80
2023-03-05T16:11:52.573Z,14.25
2023-03-05T16:14:55.535Z,16.23
2023-03-05T16:18:01.631Z,15.48
2023-03-05T16:21:06.464Z,14.98
2023-03-05T16:24:09.548Z,13.38
2023-03-05T16:27:12.706Z,15.63
2023-03-05T16:30:17.062Z,14.35
2023-03-05T16:33:20.000Z,16.30
2023-03-05T16:36:26.714Z,14.20
2023-03-05T16:39:29.640Z,14.95
2023-03-05T16:42:33.343Z,15.98
2023-03-05T16:45:37.572Z,16.60
2023-03-05T16:48:40.568Z,16.10
2023-03-05T16:51:44.908Z,15.23
2023-03-05T16:54:48.049Z,16.73
2023-03-05T16:57:50.963Z,13.20
2023-03-05T17:00:53.947Z,17.98
2023-03-05T17:03:58.837Z,16.95
2023-03-05T17:07:04.196Z,15.02
2023-03-05T17:10:08.345Z,17.58
2023-03-05T17:13:11.508Z,20.38
2023-03-05T17:16:17.586Z,22.80
2023-03-05T17:19:21.106Z,21.10
2023-03-05T17:22:25.995Z,17.00
2023-03-05T17:25:29.127Z,18.75
2023-03-05T17:28:32.113Z,19.17
2023-03-05T17:31:35.382Z,19.23
2023-03-05T17:34:38.356Z,21.15
2023-03-05T17:37:42.693Z,18.50
2023-03-05T17:40:45.756Z,19.88
2023-03-05T17:43:48.882Z,17.58
2023-03-05T17:46:51.807Z,19.60
2023-03-05T17:49:54.779Z,22.05
2023-03-05T17:52:59.104Z,19.25
2023-03-05T17:56:02.434Z,18.00
2023-03-05T17:59:05.402Z,19.80
2023-03-05T18:02:08.512Z,19.08
2023-03-05T18:05:12.277Z,17.55
2023-03-05T18:08:16.644Z,23.17
2023-03-05T18:11:19.888Z,18.42
2023-03-05T18:14:22.877Z,23.70
2023-03-05T18:17:26.058Z,20.35
2023-03-05T18:20:31.259Z,22.48
2023-03-05T18:23:36.437Z,15.73
2023-03-05T18:26:39.392Z,18.30
2023-03-05T18:29:42.462Z,22.80
2023-03-05T18:32:46.588Z,20.23
2023-03-05T18:35:52.156Z,17.08
2023-03-05T18:38:56.787Z,16.02
2023-03-05T18:42:00.122Z,17.80
2023-03-05T18:45:03.525Z,15.23
2023-03-05T18:48:06.748Z,21.90
2023-03-05T18:51:16.195Z,23.05
2023-03-05T18:54:20.706Z,18.35
2023-03-05T18:57:23.656Z,18.00
2023-03-05T19:00:28.634Z,16.65
2023-03-05T19:03:32.711Z,20.17
2023-03-05T19:06:36.605Z,18.45
2023-03-05T19:09:52.195Z,18.23
2023-03-05T19:13:05.603Z,17.73
2023-03-05T19:16:11.271Z,17.83
2023-03-05T19:19:16.310Z,18.05
2023-03-05T19:22:20.139Z,18.98
2023-03-05T19:25:24.447Z,16.48
2023-03-05T19:28:30.077Z,18.27
2023-03-05T19:31:33.151Z,20.42
2023-03-05T19:34:36.779Z,14.77
2023-03-05T19:37:40.427Z,13.68
2023-03-05T19:40:44.972Z,17.63
2023-03-05T19:43:49.341Z,16.58
2023-03-05T19:46:52.552Z,23.90
2023-03-05T19:49:55.624Z,18.73
2023-03-05T19:52:58.601Z,18.50
2023-03-05T19:56:06.223Z,18.17
2023-03-05T19:59:10.544Z,20.00
2023-03-05T20:02:18.374Z,17.77
2023-03-05T20:05:25.559Z,22.17
2023-03-05T20:08:28.464Z,16.20
2023-03-05T20:11:32.887Z,15.02
2023-03-05T20:14:35.859Z,14.82
2023-03-05T20:17:38.872Z,16.45
2023-03-05T20:20:41.891Z,17.65
2023-03-05T20:23:44.780Z,22.30
2023-03-05T20:26:49.600Z,17.80
2023-03-05T20:29:52.586Z,16.55
2023-03-05T20:32:55.693Z,17.55
2023-03-05T20:35:58.639Z,18.60
2023-03-05T20:39:02.978Z,20.52
2023-03-05T20:42:07.338Z,14.57
2023-03-05T20:45:11.180Z,15.10
2023-03-05T20:48:14.541Z,16.98
2023-03-05T20:51:22.518Z,17.05
2023-03-05T20:54:27.297Z,14.57
2023-03-05T20:57:31.713Z,18.58
2023-03-05T21:00:34.694Z,16.05
2023-03-05T21:03:38.800Z,16.23
2023-03-05T21:06:41.790Z,15.75
2023-03-05T21:09:44.809Z,16.27
2023-03-05T21:12:51.027Z,16.65
2023-03-05T21:15:54.058Z,15.95
2023-03-05T21:18:58.051Z,15.40
2023-03-05T21:22:01.423Z,16.70
2023-03-05T21:25:15.764Z,15.57
2023-03-05T21:28:20.511Z,14.25
2023-03-05T21:31:24.273Z,18.65
2023-03-05T21:34:27.337Z,14.35
2023-03-05T21:37:30.389Z,20.10
2023-03-05T21:40:34.499Z,14.60
2023-03-05T21:43:38.899Z,16.95
2023-03-05T21:46:42.746Z,14.57
2023-03-05T21:49:45.830Z,20.30
2023-03-05T21:52:48.748Z,18.85
2023-03-05T21:56:04.153Z,16.48
2023-03-05T21:59:08.520Z,20.88
2023-03-05T22:02:12.918Z,23.63
2023-03-05T22:05:15.887Z,16.75
2023-03-05T22:08:18.840Z,15.25
2023-03-05T22:11:22.398Z,14.90
2023-03-05T22:14:26.744Z,12.95
2023-03-05T22:17:29.756Z,16.33
2023-03-05T22:20:34.948Z,13.40
2023-03-05T22:23:37.972Z,13.00
2023-03-05T22:26:42.555Z,12.98
2023-03-05T22:29:46.941Z,17.45
2023-03-05T22:32:49.925Z,16.83
2023-03-05T22:35:53.207Z,15.48
2023-03-05T22:38:56.266Z,14.48
2023-03-05T22:41:59.266Z,15.57
2023-03-05T22:45:03.596Z,15.45
2023-03-05T22:48:07.690Z,12.30
2023-03-05T22:51:11.408Z,12.88
2023-03-05T22:54:14.358Z,14.13
2023-03-05T22:57:17.358Z,13.52
2023-03-05T23:00:26.693Z,13.13
2023-03-05T23:03:29.930Z,12.30
2023-03-05T23:06:32.842Z,14.57
2023-03-05T23:09:35.883Z,11.70
2023-03-05T23:12:41.239Z,14.05
2023-03-05T23:15:45.646Z,10.88
2023-03-05T23:18:48.581Z,12.45
2023-03-05T23:21:51.479Z,14.75
2023-03-05T23:24:54.476Z,13.32
2023-03-05T23:27:58.994Z,12.43
2023-03-05T23:31:04.358Z,11.10
2023-03-05T23:34:07.450Z,11.50
2023-03-05T23:37:10.449Z,12.23
2023-03-05T23:40:16.234Z,12.27
2023-03-05T23:43:19.935Z,10.68
2023-03-05T23:46:24.377Z,9.75
2023-03-05T23:49:27.900Z,13.10
2023-03-05T23:52:30.965Z,12.98
2023-03-05T23:55:35.976Z,11.90
2023-03-05T23:58:39.403Z,8.98
